createdAt,value
2019-03-28T00:00:11.202Z,9.93
2019-03-28T00:02:42.152Z,9.75
2019-03-28T00:05:11.694Z,10.00
2019-03-28T00:07:41.101Z,10.32
2019-03-28T00:10:10.428Z,9.15
2019-03-28T00:12:40.243Z,8.85
2019-03-28T00:15:09.760Z,8.85
2019-03-28T00:17:39.472Z,8.45
2019-03-28T00:20:10.086Z,8.40
2019-03-28T00:22:41.059Z,8.33
2019-03-28T00:25:14.713Z,8.30
2019-03-28T00:27:44.286Z,8.30
2019-03-28T00:30:15.129Z,8.95
2019-03-28T00:32:44.731Z,8.45
2019-03-28T00:35:14.056Z,7.83
2019-03-28T00:37:43.388Z,9.15
2019-03-28T00:40:12.779Z,8.25
2019-03-28T00:42:42.104Z,8.63
2019-03-28T00:45:12.474Z,7.42
2019-03-28T00:47:41.886Z,7.80
2019-03-28T00:50:11.848Z,8.38
2019-03-28T00:52:41.404Z,8.85
2019-03-28T00:55:11.323Z,8.70
2019-03-28T00:57:40.731Z,7.42
2019-03-28T01:00:10.834Z,8.35
2019-03-28T01:02:40.156Z,8.20
2019-03-28T01:05:09.555Z,8.28
2019-03-28T01:07:39.143Z,7.53
2019-03-28T01:10:08.641Z,7.85
2019-03-28T01:12:38.935Z,8.23
2019-03-28T01:15:08.909Z,8.65
2019-03-28T01:17:38.228Z,8.98
2019-03-28T01:20:08.897Z,8.28
2019-03-28T01:22:38.240Z,8.75
2019-03-28T01:25:07.806Z,8.75
2019-03-28T01:27:37.156Z,7.97
2019-03-28T01:30:08.125Z,8.45
2019-03-28T01:32:37.698Z,9.03
2019-03-28T01:35:07.200Z,8.03
2019-03-28T01:37:36.530Z,8.78
2019-03-28T01:40:06.800Z,8.38
2019-03-28T01:42:36.125Z,7.92
2019-03-28T01:45:08.481Z,8.50
2019-03-28T01:47:38.749Z,7.33
2019-03-28T01:50:08.320Z,8.08
2019-03-28T01:52:37.645Z,7.58
2019-03-28T01:55:07.952Z,7.85
2019-03-28T01:57:37.278Z,7.95
2019-03-28T02:00:09.143Z,7.83
2019-03-28T02:02:38.531Z,7.65
2019-03-28T02:05:08.233Z,7.75
2019-03-28T02:07:37.653Z,7.33
2019-03-28T02:10:07.424Z,7.00
2019-03-28T02:12:36.753Z,7.60
2019-03-28T02:15:09.204Z,7.28
2019-03-28T02:17:38.673Z,6.65
2019-03-28T02:20:10.431Z,7.35
2019-03-28T02:22:40.407Z,7.65
2019-03-28T02:25:10.094Z,7.53
2019-03-28T02:27:40.015Z,7.83
2019-03-28T02:30:10.314Z,7.60
2019-03-28T02:32:39.615Z,7.53
2019-03-28T02:35:09.623Z,7.65
2019-03-28T02:37:39.200Z,7.95
2019-03-28T02:40:08.692Z,8.18
2019-03-28T02:42:38.085Z,8.25
2019-03-28T02:45:08.043Z,8.88
2019-03-28T02:47:37.355Z,8.88
2019-03-28T02:50:08.318Z,8.55
2019-03-28T02:52:38.746Z,8.88
2019-03-28T02:55:08.122Z,8.15
2019-03-28T02:57:41.645Z,8.10
2019-03-28T03:00:09.466Z,9.08
2019-03-28T03:02:38.981Z,8.05
2019-03-28T03:05:09.001Z,9.40
2019-03-28T03:07:38.335Z,9.10
2019-03-28T03:10:08.006Z,9.85
2019-03-28T03:12:37.592Z,8.43
2019-03-28T03:15:07.838Z,8.88
2019-03-28T03:17:37.199Z,9.20
2019-03-28T03:20:08.636Z,8.85
2019-03-28T03:22:37.978Z,9.08
2019-03-28T03:25:08.312Z,8.75
2019-03-28T03:27:37.652Z,9.65
2019-03-28T03:30:08.499Z,9.20
2019-03-28T03:32:37.917Z,9.80
2019-03-28T03:35:07.692Z,8.83
2019-03-28T03:37:37.107Z,9.73
2019-03-28T03:40:08.483Z,9.55
2019-03-28T03:42:37.802Z,9.08
2019-03-28T03:45:09.610Z,8.90
2019-03-28T03:47:39.117Z,9.38
2019-03-28T03:50:09.075Z,9.60
2019-03-28T03:52:38.416Z,10.38
2019-03-28T03:55:07.899Z,10.13
2019-03-28T03:57:37.228Z,11.30
2019-03-28T04:00:07.399Z,10.38
2019-03-28T04:02:36.948Z,11.03
2019-03-28T04:05:07.307Z,10.80
2019-03-28T04:07:36.629Z,10.98
2019-03-28T04:10:06.724Z,11.05
2019-03-28T04:12:36.185Z,11.55
2019-03-28T04:15:06.429Z,10.60
2019-03-28T04:17:35.800Z,11.12
2019-03-28T04:20:06.634Z,11.15
2019-03-28T04:22:37.036Z,12.10
2019-03-28T04:25:08.220Z,11.97
2019-03-28T04:27:37.758Z,11.57
2019-03-28T04:30:08.223Z,12.28
2019-03-28T04:32:37.562Z,12.40
2019-03-28T04:35:07.140Z,13.30
2019-03-28T04:37:36.514Z,12.68
2019-03-28T04:40:08.517Z,13.03
2019-03-28T04:42:38.305Z,13.03
2019-03-28T04:45:07.875Z,12.73
2019-03-28T04:47:37.205Z,14.10
2019-03-28T04:50:07.867Z,12.50
2019-03-28T04:52:37.205Z,13.83
2019-03-28T04:55:06.976Z,13.35
2019-03-28T04:57:36.320Z,13.88
2019-03-28T05:00:07.635Z,13.78
2019-03-28T05:02:36.910Z,13.90
2019-03-28T05:05:07.187Z,13.95
2019-03-28T05:07:36.517Z,14.47
2019-03-28T05:10:08.366Z,14.73
2019-03-28T05:12:37.697Z,14.33
2019-03-28T05:15:08.491Z,15.03
2019-03-28T05:17:37.818Z,14.60
2019-03-28T05:20:07.684Z,13.93
2019-03-28T05:22:37.037Z,13.98
2019-03-28T05:25:06.804Z,15.08
2019-03-28T05:27:37.112Z,14.73
2019-03-28T05:30:10.729Z,14.93
2019-03-28T05:32:40.058Z,14.45
2019-03-28T05:35:09.634Z,14.23
2019-03-28T05:37:39.585Z,14.85
2019-03-28T05:40:09.988Z,14.13
2019-03-28T05:42:39.618Z,13.88
2019-03-28T05:45:09.388Z,14.05
2019-03-28T05:47:38.721Z,14.85
2019-03-28T05:50:08.890Z,13.43
2019-03-28T05:52:38.230Z,14.28
2019-03-28T05:55:08.008Z,13.58
2019-03-28T05:57:37.360Z,14.63
2019-03-28T06:00:08.810Z,14.45
2019-03-28T06:02:38.214Z,14.07
2019-03-28T06:05:07.798Z,14.47
2019-03-28T06:07:37.123Z,14.43
2019-03-28T06:10:07.783Z,14.60
2019-03-28T06:12:37.115Z,14.90
2019-03-28T06:15:09.941Z,14.38
2019-03-28T06:17:39.266Z,16.00
2019-03-28T06:20:09.333Z,14.80
2019-03-28T06:22:39.574Z,13.68
2019-03-28T06:25:09.258Z,15.38
2019-03-28T06:27:38.910Z,15.55
2019-03-28T06:30:09.483Z,14.87
2019-03-28T06:32:43.269Z,14.75
2019-03-28T06:35:10.404Z,15.80
2019-03-28T06:37:39.732Z,14.40
2019-03-28T06:40:09.818Z,14.05
2019-03-28T06:42:39.150Z,15.35
2019-03-28T06:45:09.233Z,14.80
2019-03-28T06:47:38.578Z,13.93
2019-03-28T06:50:09.034Z,14.53
2019-03-28T06:52:38.363Z,15.78
2019-03-28T06:55:07.924Z,15.32
2019-03-28T06:57:37.260Z,15.20
2019-03-28T07:00:09.079Z,14.95
2019-03-28T07:02:38.404Z,15.45
2019-03-28T07:05:08.274Z,16.02
2019-03-28T07:07:38.176Z,16.90
2019-03-28T07:10:07.744Z,15.53
2019-03-28T07:12:37.083Z,16.00
2019-03-28T07:15:08.358Z,17.15
2019-03-28T07:17:37.759Z,16.67
2019-03-28T07:20:09.221Z,16.55
2019-03-28T07:22:38.783Z,17.25
2019-03-28T07:25:08.762Z,18.15
2019-03-28T07:27:38.167Z,16.17
2019-03-28T07:30:10.551Z,16.67
2019-03-28T07:32:43.126Z,17.23
2019-03-28T07:35:11.463Z,18.40
2019-03-28T07:37:40.975Z,17.57
2019-03-28T07:40:10.880Z,17.60
2019-03-28T07:42:40.222Z,16.90
2019-03-28T07:45:10.866Z,17.75
2019-03-28T07:47:40.203Z,19.40
2019-03-28T07:50:11.890Z,18.30
2019-03-28T07:52:41.265Z,19.52
2019-03-28T07:55:10.836Z,19.02
2019-03-28T07:57:40.179Z,19.73
2019-03-28T08:00:12.228Z,21.25
2019-03-28T08:02:41.596Z,21.35
2019-03-28T08:05:11.667Z,21.73
2019-03-28T08:07:45.337Z,22.20
2019-03-28T08:10:13.582Z,21.93
2019-03-28T08:12:43.338Z,22.37
2019-03-28T08:15:14.562Z,22.50
2019-03-28T08:17:43.970Z,23.83
2019-03-28T08:20:13.937Z,23.30
2019-03-28T08:22:43.534Z,24.07
2019-03-28T08:25:14.064Z,23.55
2019-03-28T08:27:43.592Z,23.55
2019-03-28T08:30:18.743Z,23.07
2019-03-28T08:35:15.246Z,23.02
2019-03-28T08:37:44.777Z,23.92
2019-03-28T08:40:17.414Z,23.95
2019-03-28T08:42:47.498Z,23.07
2019-03-28T08:45:16.938Z,21.42
2019-03-28T08:47:46.292Z,23.62
2019-03-28T08:50:15.688Z,22.55
2019-03-28T08:52:45.028Z,22.85
2019-03-28T08:55:14.802Z,21.77
2019-03-28T08:57:44.215Z,23.20
2019-03-28T09:00:16.642Z,22.58
2019-03-28T09:02:44.847Z,22.27
2019-03-28T09:05:14.183Z,20.90
2019-03-28T09:07:43.527Z,21.65
2019-03-28T09:10:12.930Z,20.62
2019-03-28T09:12:42.274Z,20.60
2019-03-28T09:15:11.951Z,20.97
2019-03-28T09:17:42.513Z,20.92
2019-03-28T09:20:12.385Z,20.97
2019-03-28T09:22:41.732Z,21.68
2019-03-28T09:25:12.402Z,21.62
2019-03-28T09:27:41.932Z,21.62
2019-03-28T09:30:12.021Z,20.72
2019-03-28T09:32:41.367Z,20.68
2019-03-28T09:35:11.238Z,19.12
2019-03-28T09:37:40.585Z,19.80
2019-03-28T09:40:10.141Z,19.62
2019-03-28T09:42:39.465Z,20.30
2019-03-28T09:45:09.252Z,20.30
2019-03-28T09:47:39.650Z,18.90
2019-03-28T09:50:09.425Z,17.70
2019-03-28T09:52:38.759Z,17.45
2019-03-28T09:55:08.095Z,17.37
2019-03-28T09:57:37.435Z,17.87
2019-03-28T10:00:11.746Z,17.32
2019-03-28T10:02:43.950Z,17.25
2019-03-28T10:05:12.284Z,17.27
2019-03-28T10:07:41.641Z,16.60
2019-03-28T10:10:11.415Z,16.42
2019-03-28T10:12:43.870Z,17.57
2019-03-28T10:15:12.341Z,18.05
2019-03-28T10:17:42.559Z,18.05
2019-03-28T10:20:12.199Z,17.67
2019-03-28T10:22:41.540Z,15.55
2019-03-28T10:25:12.728Z,14.20
2019-03-28T10:27:42.702Z,12.82
2019-03-28T10:30:13.082Z,12.68
2019-03-28T10:32:42.420Z,12.43
2019-03-28T10:35:14.803Z,12.00
2019-03-28T10:37:44.146Z,12.90
2019-03-28T10:40:13.486Z,13.22
2019-03-28T10:42:42.823Z,12.63
2019-03-28T10:45:12.226Z,12.90
2019-03-28T10:47:41.564Z,12.05
2019-03-28T10:50:11.722Z,12.35
2019-03-28T10:52:41.846Z,10.20
2019-03-28T10:55:11.182Z,9.13
2019-03-28T10:57:40.510Z,6.92
2019-03-28T11:00:23.134Z,6.83
2019-03-28T11:02:41.317Z,7.20
2019-03-28T11:05:11.017Z,5.90
2019-03-28T11:07:40.622Z,7.55
2019-03-28T11:10:10.031Z,7.05
2019-03-28T11:12:39.355Z,7.92
2019-03-28T11:15:09.729Z,11.33
2019-03-28T11:17:40.135Z,7.45
2019-03-28T11:20:09.883Z,9.50
2019-03-28T11:22:39.345Z,9.63
2019-03-28T11:25:09.020Z,10.28
2019-03-28T11:27:38.355Z,10.13
2019-03-28T11:30:09.342Z,10.72
2019-03-28T11:32:38.675Z,9.05
2019-03-28T11:35:08.352Z,9.48
2019-03-28T11:37:37.979Z,7.33
2019-03-28T11:40:09.640Z,7.95
2019-03-28T11:42:40.175Z,7.90
2019-03-28T11:45:10.647Z,7.40
2019-03-28T11:47:39.996Z,6.53
2019-03-28T11:50:10.361Z,6.78
2019-03-28T11:52:42.528Z,7.83
2019-03-28T11:55:10.970Z,8.63
2019-03-28T11:57:40.303Z,8.33
2019-03-28T12:00:13.258Z,8.00
2019-03-28T12:02:42.589Z,8.95
2019-03-28T12:05:12.961Z,8.00
2019-03-28T12:07:42.291Z,8.80
2019-03-28T12:10:12.410Z,7.67
2019-03-28T12:12:41.858Z,7.12
2019-03-28T12:15:12.028Z,7.22
2019-03-28T12:17:41.362Z,7.53
2019-03-28T12:20:12.029Z,8.05
2019-03-28T12:22:41.346Z,7.20
2019-03-28T12:25:11.083Z,7.55
2019-03-28T12:27:40.419Z,7.50
2019-03-28T12:30:15.735Z,8.88
2019-03-28T12:32:44.121Z,8.63
2019-03-28T12:35:13.588Z,9.13
2019-03-28T12:37:42.928Z,8.23
2019-03-28T12:40:12.599Z,8.75
2019-03-28T12:42:41.934Z,7.67
2019-03-28T12:45:12.349Z,8.23
2019-03-28T12:47:43.142Z,9.08
2019-03-28T12:50:13.643Z,7.20
2019-03-28T12:52:42.976Z,12.82
2019-03-28T12:55:12.844Z,9.63
2019-03-28T12:57:42.186Z,7.80
2019-03-28T13:00:12.856Z,9.60
2019-03-28T13:02:42.200Z,9.20
2019-03-28T13:05:11.857Z,8.35
2019-03-28T13:07:41.193Z,8.98
2019-03-28T13:10:11.925Z,10.50
2019-03-28T13:12:41.277Z,10.90
2019-03-28T13:15:10.943Z,8.78
2019-03-28T13:17:40.305Z,13.22
2019-03-28T13:20:10.282Z,10.20
2019-03-28T13:22:39.619Z,8.48
2019-03-28T13:25:09.393Z,12.07
2019-03-28T13:27:38.740Z,9.85
2019-03-28T13:30:13.415Z,8.20
2019-03-28T13:32:42.861Z,7.37
2019-03-28T13:35:12.742Z,7.65
2019-03-28T13:37:42.091Z,8.88
2019-03-28T13:40:12.635Z,7.83
2019-03-28T13:42:42.011Z,10.03
2019-03-28T13:45:12.484Z,9.10
2019-03-28T13:47:41.829Z,8.43
2019-03-28T13:50:12.294Z,8.38
2019-03-28T13:52:41.626Z,8.73
2019-03-28T13:55:11.226Z,8.18
2019-03-28T13:57:43.254Z,7.95
2019-03-28T14:00:12.234Z,7.87
2019-03-28T14:02:54.650Z,7.67
2019-03-28T14:05:13.274Z,7.45
2019-03-28T14:07:42.656Z,8.30
2019-03-28T14:10:12.446Z,8.28
2019-03-28T14:12:42.064Z,8.10
2019-03-28T14:15:11.638Z,8.15
2019-03-28T14:17:40.972Z,8.03
2019-03-28T14:20:11.341Z,7.70
2019-03-28T14:22:41.009Z,7.65
2019-03-28T14:25:10.722Z,8.05
2019-03-28T14:27:40.051Z,7.17
2019-03-28T14:30:11.661Z,7.10
2019-03-28T14:32:52.377Z,7.42
2019-03-28T14:35:12.161Z,6.60
2019-03-28T14:37:41.546Z,6.58
2019-03-28T14:40:11.106Z,7.70
2019-03-28T14:42:41.188Z,6.87
2019-03-28T14:45:12.219Z,7.30
2019-03-28T14:47:42.105Z,6.67
2019-03-28T14:50:12.382Z,7.70
2019-03-28T14:52:42.044Z,7.20
2019-03-28T14:55:11.550Z,7.20
2019-03-28T14:57:41.145Z,7.75
2019-03-28T15:00:16.454Z,7.97
2019-03-28T15:02:45.791Z,8.68
2019-03-28T15:05:15.131Z,7.92
2019-03-28T15:07:44.456Z,8.40
2019-03-28T15:10:13.904Z,7.90
2019-03-28T15:12:43.234Z,7.67
2019-03-28T15:15:12.942Z,7.10
2019-03-28T15:17:44.883Z,7.72
2019-03-28T15:20:13.380Z,7.75
2019-03-28T15:22:42.709Z,8.00
2019-03-28T15:25:12.215Z,7.53
2019-03-28T15:27:41.798Z,7.08
2019-03-28T15:30:11.382Z,7.53
2019-03-28T15:32:40.731Z,7.62
2019-03-28T15:35:10.227Z,8.00
2019-03-28T15:37:40.014Z,6.80
2019-03-28T15:40:09.664Z,7.30
2019-03-28T15:42:39.061Z,7.92
2019-03-28T15:45:08.881Z,7.70
2019-03-28T15:47:38.281Z,8.23
2019-03-28T15:50:08.154Z,8.05
2019-03-28T15:52:37.495Z,7.50
2019-03-28T15:55:07.635Z,8.05
2019-03-28T15:57:37.163Z,7.58
2019-03-28T16:00:10.628Z,7.58
2019-03-28T16:02:40.129Z,8.60
2019-03-28T16:05:09.717Z,8.15
2019-03-28T16:07:39.042Z,8.80
2019-03-28T16:10:09.006Z,8.03
2019-03-28T16:12:39.756Z,8.63
2019-03-28T16:15:09.331Z,9.10
2019-03-28T16:17:38.783Z,8.00
2019-03-28T16:20:09.005Z,8.03
2019-03-28T16:22:38.366Z,6.85
2019-03-28T16:25:07.870Z,7.47
2019-03-28T16:27:37.291Z,7.45
2019-03-28T16:30:09.228Z,7.60
2019-03-28T16:32:38.563Z,7.35
2019-03-28T16:35:08.332Z,7.05
2019-03-28T16:37:37.686Z,8.43
2019-03-28T16:40:07.862Z,7.58
2019-03-28T16:42:37.222Z,7.78
2019-03-28T16:45:08.125Z,8.78
2019-03-28T16:47:39.132Z,7.85
2019-03-28T16:50:08.799Z,7.97
2019-03-28T16:52:38.197Z,7.70
2019-03-28T16:55:08.268Z,8.10
2019-03-28T16:57:37.606Z,8.00
2019-03-28T17:00:17.066Z,7.58
2019-03-28T17:02:46.578Z,7.97
2019-03-28T17:05:15.979Z,8.55
2019-03-28T17:07:45.389Z,7.15
2019-03-28T17:10:23.981Z,7.47
2019-03-28T17:12:53.374Z,6.90
2019-03-28T17:15:25.731Z,7.22
2019-03-28T17:17:53.744Z,7.17
2019-03-28T17:20:23.077Z,7.03
2019-03-28T17:22:52.419Z,7.25
2019-03-28T17:25:21.768Z,6.97
2019-03-28T17:27:51.109Z,6.85
2019-03-28T17:30:20.442Z,6.37
2019-03-28T17:32:49.788Z,7.17
2019-03-28T17:35:19.110Z,9.55
2019-03-28T17:37:48.480Z,12.45
2019-03-28T17:40:17.814Z,9.93
2019-03-28T17:42:47.983Z,12.73
2019-03-28T17:45:17.706Z,9.58
2019-03-28T17:47:47.066Z,12.70
2019-03-28T17:50:17.548Z,12.40
2019-03-28T17:52:46.887Z,10.78
2019-03-28T17:55:19.490Z,10.45
2019-03-28T17:57:47.588Z,10.45
2019-03-28T18:00:17.096Z,11.00
2019-03-28T18:02:46.733Z,10.43
2019-03-28T18:05:16.241Z,11.95
2019-03-28T18:07:45.639Z,12.05
2019-03-28T18:10:16.014Z,18.00
2019-03-28T18:12:45.407Z,16.25
2019-03-28T18:15:15.558Z,12.60
2019-03-28T18:17:45.089Z,12.13
2019-03-28T18:20:14.895Z,11.78
2019-03-28T18:22:44.238Z,12.80
2019-03-28T18:25:14.016Z,13.20
2019-03-28T18:27:43.831Z,11.30
2019-03-28T18:30:13.805Z,11.70
2019-03-28T18:32:43.143Z,11.45
2019-03-28T18:35:12.719Z,11.18
2019-03-28T18:37:42.057Z,12.03
2019-03-28T18:40:12.078Z,11.93
2019-03-28T18:42:41.410Z,12.58
2019-03-28T18:45:12.761Z,11.95
2019-03-28T18:47:42.314Z,11.70
2019-03-28T18:50:11.931Z,11.30
2019-03-28T18:52:41.268Z,11.35
2019-03-28T18:55:11.060Z,12.20
2019-03-28T18:57:40.385Z,10.88
2019-03-28T19:00:10.265Z,10.28
2019-03-28T19:02:39.670Z,10.00
2019-03-28T19:05:19.834Z,10.15
2019-03-28T19:07:40.125Z,11.03
2019-03-28T19:10:10.316Z,10.93
2019-03-28T19:12:39.644Z,9.65
2019-03-28T19:15:09.633Z,10.78
2019-03-28T19:17:38.980Z,12.40
2019-03-28T19:20:09.896Z,11.20
2019-03-28T19:22:39.705Z,11.00
2019-03-28T19:25:10.569Z,10.13
2019-03-28T19:27:39.910Z,9.78
2019-03-28T19:30:10.595Z,10.15
2019-03-28T19:32:39.928Z,11.65
2019-03-28T19:35:10.400Z,12.55
2019-03-28T19:37:40.692Z,11.73
2019-03-28T19:40:11.941Z,11.35
2019-03-28T19:42:41.277Z,11.60
2019-03-28T19:45:10.953Z,12.00
2019-03-28T19:47:40.286Z,12.35
2019-03-28T19:50:11.534Z,15.45
2019-03-28T19:52:40.867Z,17.67
2019-03-28T19:55:13.258Z,19.82
2019-03-28T19:57:42.657Z,21.42
2019-03-28T20:00:12.071Z,22.22
2019-03-28T20:02:41.407Z,24.70
2019-03-28T20:05:10.985Z,25.23
2019-03-28T20:07:40.322Z,25.68
2019-03-28T20:10:16.229Z,26.80
2019-03-28T20:12:41.018Z,28.98
2019-03-28T20:15:10.962Z,30.48
2019-03-28T20:17:40.367Z,29.87
2019-03-28T20:20:09.981Z,29.18
2019-03-28T20:22:39.329Z,31.68
2019-03-28T20:25:08.993Z,30.70
2019-03-28T20:27:38.344Z,32.38
2019-03-28T20:30:09.266Z,32.73
2019-03-28T20:32:38.696Z,32.48
2019-03-28T20:35:10.464Z,32.17
2019-03-28T20:37:39.796Z,31.97
2019-03-28T20:40:10.697Z,33.35
2019-03-28T20:42:40.041Z,34.03
2019-03-28T20:45:10.823Z,34.00
2019-03-28T20:47:40.520Z,32.03
2019-03-28T20:50:10.703Z,34.05
2019-03-28T20:52:40.046Z,32.53
2019-03-28T20:55:09.730Z,32.25
2019-03-28T20:57:40.552Z,33.20
2019-03-28T21:00:10.611Z,33.42
2019-03-28T21:02:40.289Z,33.60
2019-03-28T21:05:10.364Z,34.48
2019-03-28T21:07:39.870Z,33.25
2019-03-28T21:10:13.225Z,32.88
2019-03-28T21:12:43.728Z,32.65
2019-03-28T21:15:13.173Z,33.13
2019-03-28T21:17:42.518Z,31.70
2019-03-28T21:20:12.189Z,32.48
2019-03-28T21:22:43.017Z,32.65
2019-03-28T21:25:12.355Z,33.15
2019-03-28T21:27:41.688Z,31.02
2019-03-28T21:30:11.191Z,33.15
2019-03-28T21:32:40.594Z,31.68
2019-03-28T21:35:10.198Z,31.70
2019-03-28T21:37:39.516Z,33.38
2019-03-28T21:40:09.380Z,34.13
2019-03-28T21:42:38.824Z,33.85
2019-03-28T21:45:08.765Z,32.63
2019-03-28T21:47:38.180Z,33.33
2019-03-28T21:50:08.006Z,33.53
2019-03-28T21:52:37.337Z,35.50
2019-03-28T21:55:07.702Z,37.48
2019-03-28T21:57:38.149Z,38.65
2019-03-28T22:00:08.589Z,37.60
2019-03-28T22:02:38.278Z,39.13
2019-03-28T22:05:07.870Z,41.55
2019-03-28T22:07:37.256Z,41.40
2019-03-28T22:10:10.085Z,39.88
2019-03-28T22:12:39.424Z,39.50
2019-03-28T22:15:09.192Z,41.53
2019-03-28T22:17:38.530Z,40.58
2019-03-28T22:20:07.858Z,40.52
2019-03-28T22:22:37.198Z,42.50
2019-03-28T22:25:07.867Z,40.03
2019-03-28T22:27:37.217Z,40.40
2019-03-28T22:30:08.613Z,40.98
2019-03-28T22:32:37.922Z,40.92
2019-03-28T22:35:08.387Z,40.95
2019-03-28T22:37:37.732Z,41.20
2019-03-28T22:40:11.726Z,40.50
2019-03-28T22:42:40.201Z,39.80
2019-03-28T22:45:12.169Z,40.73
2019-03-28T22:47:42.003Z,40.05
2019-03-28T22:50:11.528Z,40.85
2019-03-28T22:52:40.855Z,39.75
2019-03-28T22:55:10.835Z,41.02
2019-03-28T22:57:40.159Z,40.05
2019-03-28T23:00:12.096Z,40.63
2019-03-28T23:02:44.959Z,39.20
2019-03-28T23:05:14.836Z,41.83
2019-03-28T23:07:44.164Z,41.10
2019-03-28T23:10:14.136Z,41.37
2019-03-28T23:12:43.464Z,40.88
2019-03-28T23:15:13.239Z,40.38
2019-03-28T23:17:42.569Z,39.50
2019-03-28T23:20:12.540Z,40.20
2019-03-28T23:22:41.869Z,38.70
2019-03-28T23:25:11.256Z,38.55
2019-03-28T23:27:40.530Z,39.80
2019-03-28T23:30:10.203Z,39.58
2019-03-28T23:32:39.701Z,36.93
2019-03-28T23:35:09.410Z,39.25
2019-03-28T23:37:38.737Z,39.58
2019-03-28T23:40:09.615Z,39.55
2019-03-28T23:42:38.946Z,40.33
2019-03-28T23:45:11.400Z,38.30
2019-03-28T23:47:42.064Z,39.63
2019-03-28T23:50:12.477Z,41.23
2019-03-28T23:52:42.167Z,41.53
2019-03-28T23:55:13.031Z,38.50
2019-03-28T23:57:42.360Z,38.50
